createdAt,value
2018-10-02T00:00:20.354Z,83.99
2018-10-02T00:02:49.726Z,84.43
2018-10-02T00:05:18.612Z,84.35
2018-10-02T00:07:47.434Z,84.95
2018-10-02T00:10:16.257Z,84.95
2018-10-02T00:12:50.333Z,85.15
2018-10-02T00:15:19.228Z,86.00
2018-10-02T00:17:48.094Z,85.05
2018-10-02T00:20:16.943Z,86.42
2018-10-02T00:22:46.129Z,86.52
2018-10-02T00:25:15.335Z,85.90
2018-10-02T00:27:44.518Z,85.67
2018-10-02T00:30:13.735Z,85.36
2018-10-02T00:32:42.813Z,85.90
2018-10-02T00:35:11.961Z,84.98
2018-10-02T00:37:41.127Z,86.22
2018-10-02T00:40:10.471Z,85.67
2018-10-02T00:42:39.706Z,85.29
2018-10-02T00:45:08.927Z,85.77
2018-10-02T00:47:38.090Z,86.32
2018-10-02T00:50:07.206Z,85.52
2018-10-02T00:52:36.406Z,85.32
2018-10-02T00:55:05.616Z,85.97
2018-10-02T00:57:34.890Z,85.07
2018-10-02T01:00:04.110Z,85.05
2018-10-02T01:02:33.406Z,85.94
2018-10-02T01:05:02.650Z,84.63
2018-10-02T01:07:31.925Z,84.10
2018-10-02T01:10:00.743Z,84.84
2018-10-02T01:12:29.587Z,84.21
2018-10-02T01:14:58.401Z,84.23
2018-10-02T01:17:27.214Z,84.73
2018-10-02T01:19:56.050Z,84.73
2018-10-02T01:22:24.879Z,85.83
2018-10-02T01:24:53.675Z,85.85
2018-10-02T01:27:22.498Z,86.09
2018-10-02T01:29:51.359Z,83.91
2018-10-02T01:32:20.583Z,85.26
2018-10-02T01:34:49.781Z,84.46
2018-10-02T01:37:18.986Z,84.69
2018-10-02T01:39:48.183Z,84.79
2018-10-02T01:42:21.236Z,84.10
2018-10-02T01:44:50.349Z,84.92
2018-10-02T01:47:19.909Z,85.31
2018-10-02T01:49:49.057Z,86.00
2018-10-02T01:52:18.210Z,86.41
2018-10-02T01:54:47.409Z,85.43
2018-10-02T01:57:16.553Z,85.45
2018-10-02T01:59:45.696Z,86.39
2018-10-02T02:02:14.641Z,87.20
2018-10-02T02:04:43.725Z,86.92
2018-10-02T02:07:15.716Z,86.10
2018-10-02T02:09:44.937Z,86.62
2018-10-02T02:12:14.100Z,86.80
2018-10-02T02:14:43.171Z,86.51
2018-10-02T02:17:12.280Z,88.03
2018-10-02T02:19:41.416Z,88.02
2018-10-02T02:22:10.445Z,87.62
2018-10-02T02:24:39.561Z,87.79
2018-10-02T02:27:08.754Z,88.75
2018-10-02T02:29:37.964Z,88.81
2018-10-02T02:32:07.055Z,88.97
2018-10-02T02:34:36.140Z,87.88
2018-10-02T02:37:05.303Z,86.88
2018-10-02T02:39:34.433Z,87.05
2018-10-02T02:42:03.643Z,87.48
2018-10-02T02:44:32.881Z,88.12
2018-10-02T02:47:06.844Z,87.57
2018-10-02T02:49:40.771Z,87.77
2018-10-02T02:52:09.625Z,87.08
2018-10-02T02:54:38.426Z,87.61
2018-10-02T02:57:06.977Z,87.60
2018-10-02T02:59:35.741Z,87.72
2018-10-02T03:02:04.537Z,87.39
2018-10-02T03:04:33.328Z,88.00
2018-10-02T03:07:02.111Z,88.29
2018-10-02T03:09:30.867Z,88.51
2018-10-02T03:11:59.669Z,88.25
2018-10-02T03:14:28.436Z,88.29
2018-10-02T03:16:57.200Z,88.42
2018-10-02T03:19:25.946Z,88.23
2018-10-02T03:21:54.790Z,88.67
2018-10-02T03:24:23.557Z,89.63
2018-10-02T03:26:52.841Z,88.69
2018-10-02T03:29:21.988Z,88.47
2018-10-02T03:31:51.073Z,89.35
2018-10-02T03:34:20.160Z,90.28
2018-10-02T03:36:49.266Z,90.31
2018-10-02T03:39:18.365Z,90.53
2018-10-02T03:41:47.509Z,91.07
2018-10-02T03:44:16.649Z,91.16
2018-10-02T03:46:45.820Z,90.60
2018-10-02T03:49:14.940Z,90.33
2018-10-02T03:51:44.049Z,90.95
2018-10-02T03:54:13.288Z,91.70
2018-10-02T03:56:42.606Z,91.12
2018-10-02T03:59:11.889Z,91.15
2018-10-02T04:01:41.045Z,91.59
2018-10-02T04:04:10.157Z,92.39
2018-10-02T04:06:39.299Z,91.74
2018-10-02T04:09:10.252Z,91.70
2018-10-02T04:11:39.512Z,92.57
2018-10-02T04:14:09.139Z,92.40
2018-10-02T04:16:38.216Z,92.36
2018-10-02T04:19:07.093Z,93.18
2018-10-02T04:21:36.939Z,92.94
2018-10-02T04:24:06.960Z,92.25
2018-10-02T04:26:36.674Z,93.51
2018-10-02T04:29:06.068Z,92.87
2018-10-02T04:31:36.629Z,92.83
2018-10-02T04:34:06.087Z,92.35
2018-10-02T04:36:35.150Z,91.65
2018-10-02T04:39:05.292Z,92.96
2018-10-02T04:41:34.410Z,92.66
2018-10-02T04:44:03.556Z,93.32
2018-10-02T04:46:32.657Z,93.13
2018-10-02T04:49:01.725Z,93.19
2018-10-02T04:51:30.898Z,93.18
2018-10-02T04:54:00.153Z,92.74
2018-10-02T04:56:29.286Z,91.97
2018-10-02T04:58:59.008Z,92.72
2018-10-02T05:01:27.801Z,91.63
2018-10-02T05:03:56.626Z,91.91
2018-10-02T05:06:25.393Z,91.64
2018-10-02T05:08:54.185Z,92.25
2018-10-02T05:11:23.220Z,92.42
2018-10-02T05:13:51.989Z,92.87
2018-10-02T05:16:20.758Z,92.89
2018-10-02T05:18:49.577Z,93.92
2018-10-02T05:21:18.353Z,93.48
2018-10-02T05:23:47.146Z,93.38
2018-10-02T05:26:15.958Z,92.85
2018-10-02T05:28:44.728Z,93.60
2018-10-02T05:31:13.551Z,92.95
2018-10-02T05:33:42.375Z,93.77
2018-10-02T05:36:11.161Z,94.06
2018-10-02T05:38:39.929Z,93.86
2018-10-02T05:41:08.742Z,94.20
2018-10-02T05:43:37.517Z,93.37
2018-10-02T05:46:06.325Z,92.47
2018-10-02T05:48:35.081Z,93.50
2018-10-02T05:51:03.858Z,92.87
2018-10-02T05:53:32.660Z,93.25
2018-10-02T05:56:01.550Z,92.65
2018-10-02T05:58:30.715Z,93.01
2018-10-02T06:00:59.769Z,91.97
2018-10-02T06:03:29.195Z,92.01
2018-10-02T06:05:58.381Z,93.49
2018-10-02T06:08:27.512Z,91.75
2018-10-02T06:10:56.813Z,91.99
2018-10-02T06:13:26.016Z,90.92
2018-10-02T06:15:55.196Z,92.40
2018-10-02T06:18:24.837Z,90.98
2018-10-02T06:20:54.235Z,91.42
2018-10-02T06:23:23.593Z,91.58
2018-10-02T06:25:52.865Z,90.39
2018-10-02T06:28:22.090Z,90.97
2018-10-02T06:30:51.158Z,90.57
2018-10-02T06:33:20.253Z,90.33
2018-10-02T06:35:49.417Z,90.97
2018-10-02T06:38:18.646Z,90.16
2018-10-02T06:40:47.853Z,90.00
2018-10-02T06:43:17.161Z,89.40
2018-10-02T06:45:46.005Z,90.52
2018-10-02T06:48:14.781Z,88.87
2018-10-02T06:50:43.609Z,90.53
2018-10-02T06:53:12.392Z,89.47
2018-10-02T06:55:41.216Z,87.46
2018-10-02T06:58:10.000Z,86.90
2018-10-02T07:00:38.829Z,86.95
2018-10-02T07:03:07.704Z,87.68
2018-10-02T07:05:36.485Z,87.65
2018-10-02T07:08:05.270Z,88.77
2018-10-02T07:10:34.051Z,89.19
2018-10-02T07:13:02.859Z,89.10
2018-10-02T07:15:31.657Z,88.07
2018-10-02T07:18:00.475Z,86.66
2018-10-02T07:20:29.280Z,83.68
2018-10-02T07:22:58.065Z,82.51
2018-10-02T07:25:26.897Z,82.06
2018-10-02T07:27:55.802Z,81.62
2018-10-02T07:30:24.520Z,80.70
2018-10-02T07:32:53.286Z,80.11
2018-10-02T07:35:22.171Z,75.72
2018-10-02T07:37:51.295Z,73.86
2018-10-02T07:40:20.477Z,74.01
2018-10-02T07:42:49.618Z,72.94
2018-10-02T07:45:18.722Z,73.91
2018-10-02T07:47:47.905Z,73.46
2018-10-02T07:50:16.997Z,75.70
2018-10-02T07:52:46.083Z,76.04
2018-10-02T07:55:15.305Z,75.30
2018-10-02T07:57:44.386Z,75.80
2018-10-02T08:00:13.187Z,76.97
2018-10-02T08:02:42.090Z,75.56
2018-10-02T08:05:10.874Z,76.76
2018-10-02T08:07:39.631Z,76.56
2018-10-02T08:10:08.465Z,76.12
2018-10-02T08:12:37.275Z,76.33
2018-10-02T08:15:06.189Z,75.63
2018-10-02T08:17:34.942Z,76.43
2018-10-02T08:20:03.870Z,76.75
2018-10-02T08:22:32.577Z,77.37
2018-10-02T08:25:01.361Z,77.75
2018-10-02T08:27:30.197Z,77.33
2018-10-02T08:29:59.096Z,75.61
2018-10-02T08:32:27.807Z,76.50
2018-10-02T08:34:57.077Z,76.76
2018-10-02T08:37:26.325Z,76.27
2018-10-02T08:39:55.425Z,75.68
2018-10-02T08:42:24.522Z,76.86
2018-10-02T08:44:54.536Z,76.59
2018-10-02T08:47:23.681Z,75.61
2018-10-02T08:49:52.720Z,74.30
2018-10-02T08:52:21.841Z,74.28
2018-10-02T08:54:51.288Z,74.12
2018-10-02T08:57:20.312Z,74.15
2018-10-02T08:59:49.518Z,73.42
2018-10-02T09:02:18.774Z,72.55
2018-10-02T09:04:48.346Z,73.00
2018-10-02T09:07:17.428Z,73.49
2018-10-02T09:09:46.498Z,71.55
2018-10-02T09:12:15.276Z,71.71
2018-10-02T09:14:44.101Z,71.91
2018-10-02T09:17:12.874Z,68.84
2018-10-02T09:19:41.681Z,69.21
2018-10-02T09:22:10.477Z,70.63
2018-10-02T09:24:39.346Z,70.90
2018-10-02T09:27:08.481Z,69.44
2018-10-02T09:29:42.757Z,68.12
2018-10-02T09:32:17.129Z,70.03
2018-10-02T09:34:51.477Z,71.16
2018-10-02T09:37:25.847Z,69.84
2018-10-02T09:40:00.330Z,67.54
2018-10-02T09:42:34.636Z,69.26
2018-10-02T09:45:03.937Z,68.10
2018-10-02T09:47:33.151Z,69.88
2018-10-02T09:50:02.254Z,70.98
2018-10-02T09:52:31.049Z,69.12
2018-10-02T09:54:59.859Z,68.16
2018-10-02T09:57:28.606Z,69.24
2018-10-02T09:59:57.425Z,68.98
2018-10-02T10:02:31.472Z,67.87
2018-10-02T10:05:00.352Z,69.05
2018-10-02T10:07:29.480Z,68.43
2018-10-02T10:09:58.765Z,70.77
2018-10-02T10:12:27.909Z,69.37
2018-10-02T10:14:57.549Z,68.82
2018-10-02T10:17:26.700Z,69.40
2018-10-02T10:19:55.849Z,70.47
2018-10-02T10:22:31.038Z,70.45
2018-10-02T10:25:00.188Z,68.29
2018-10-02T10:27:29.309Z,68.04
2018-10-02T10:29:58.585Z,68.13
2018-10-02T10:32:27.588Z,67.15
2018-10-02T10:34:56.775Z,67.52
2018-10-02T10:37:26.034Z,67.91
2018-10-02T10:39:54.899Z,66.63
2018-10-02T10:42:23.787Z,67.33
2018-10-02T10:44:52.565Z,66.57
2018-10-02T10:47:21.352Z,66.65
2018-10-02T10:49:50.743Z,66.28
2018-10-02T10:52:19.593Z,65.31
2018-10-02T10:55:00.401Z,66.29
2018-10-02T10:57:29.588Z,66.52
2018-10-02T10:59:58.397Z,67.48
2018-10-02T11:02:27.149Z,66.30
2018-10-02T11:04:56.031Z,66.60
2018-10-02T11:07:24.836Z,69.36
2018-10-02T11:09:53.681Z,66.95
2018-10-02T11:12:22.465Z,65.86
2018-10-02T11:14:51.317Z,66.38
2018-10-02T11:17:20.265Z,65.75
2018-10-02T11:19:49.070Z,65.08
2018-10-02T11:22:17.850Z,67.66
2018-10-02T11:24:46.617Z,66.78
2018-10-02T11:27:15.400Z,67.92
2018-10-02T11:29:44.200Z,66.27
2018-10-02T11:32:12.953Z,68.76
2018-10-02T11:34:41.733Z,67.08
2018-10-02T11:37:10.544Z,66.01
2018-10-02T11:39:39.385Z,64.35
2018-10-02T11:42:08.184Z,60.31
2018-10-02T11:44:37.019Z,58.51
2018-10-02T11:47:05.792Z,59.30
2018-10-02T11:49:34.620Z,57.82
2018-10-02T11:52:03.445Z,58.63
2018-10-02T11:54:32.238Z,58.65
2018-10-02T11:57:01.309Z,57.97
2018-10-02T11:59:30.480Z,58.92
2018-10-02T12:01:59.625Z,58.20
2018-10-02T12:04:28.770Z,58.40
2018-10-02T12:06:57.966Z,61.36
2018-10-02T12:09:27.037Z,62.07
2018-10-02T12:11:56.198Z,62.94
2018-10-02T12:14:25.493Z,65.23
2018-10-02T12:16:54.558Z,65.15
2018-10-02T12:19:23.888Z,65.38
2018-10-02T12:21:53.053Z,66.75
2018-10-02T12:24:22.230Z,63.56
2018-10-02T12:26:51.335Z,62.27
2018-10-02T12:29:20.543Z,61.58
2018-10-02T12:31:49.614Z,62.40
2018-10-02T12:34:18.500Z,62.24
2018-10-02T12:36:47.270Z,61.06
2018-10-02T12:39:16.095Z,59.94
2018-10-02T12:41:44.859Z,60.07
2018-10-02T12:44:14.357Z,59.76
2018-10-02T12:46:43.881Z,59.54
2018-10-02T12:49:13.956Z,58.81
2018-10-02T12:51:43.148Z,58.67
2018-10-02T12:54:12.385Z,59.92
2018-10-02T12:56:41.485Z,57.98
2018-10-02T12:59:10.644Z,56.88
2018-10-02T13:01:39.782Z,57.09
2018-10-02T13:04:09.101Z,56.62
2018-10-02T13:06:38.303Z,57.41
2018-10-02T13:09:08.664Z,58.38
2018-10-02T13:11:37.968Z,59.56
2018-10-02T13:14:07.169Z,58.36
2018-10-02T13:16:36.435Z,57.79
2018-10-02T13:19:05.765Z,57.79
2018-10-02T13:21:35.053Z,56.96
2018-10-02T13:24:04.229Z,57.64
2018-10-02T13:26:33.596Z,57.21
2018-10-02T13:29:02.800Z,58.35
2018-10-02T13:31:32.009Z,57.01
2018-10-02T13:34:01.423Z,57.31
2018-10-02T13:36:30.676Z,59.07
2018-10-02T13:38:59.540Z,57.34
2018-10-02T13:41:28.313Z,57.13
2018-10-02T13:43:57.075Z,58.02
2018-10-02T13:46:25.925Z,56.76
2018-10-02T13:48:54.852Z,57.65
2018-10-02T13:51:23.604Z,56.69
2018-10-02T13:53:52.401Z,55.88
2018-10-02T13:56:21.156Z,57.13
2018-10-02T13:58:49.964Z,56.32
2018-10-02T14:01:18.851Z,56.28
2018-10-02T14:03:47.688Z,57.83
2018-10-02T14:06:16.456Z,57.78
2018-10-02T14:08:45.213Z,56.79
2018-10-02T14:11:14.007Z,59.33
2018-10-02T14:13:42.854Z,58.75
2018-10-02T14:16:11.733Z,58.68
2018-10-02T14:18:40.488Z,58.82
2018-10-02T14:21:09.312Z,59.14
2018-10-02T14:23:38.180Z,59.53
2018-10-02T14:26:07.413Z,59.67
2018-10-02T14:28:36.678Z,59.30
2018-10-02T14:31:05.977Z,58.52
2018-10-02T14:33:35.106Z,59.76
2018-10-02T14:36:04.896Z,59.65
2018-10-02T14:38:34.146Z,61.66
2018-10-02T14:41:03.461Z,60.59
2018-10-02T14:43:32.278Z,60.40
2018-10-02T14:46:01.342Z,59.78
2018-10-02T14:48:30.246Z,60.20
2018-10-02T14:50:59.002Z,60.13
2018-10-02T14:53:27.769Z,61.59
2018-10-02T14:55:56.795Z,61.47
2018-10-02T14:58:25.700Z,61.42
2018-10-02T15:00:54.621Z,62.38
2018-10-02T15:03:23.480Z,62.61
2018-10-02T15:05:52.408Z,63.57
2018-10-02T15:08:21.489Z,64.05
2018-10-02T15:10:50.450Z,65.15
2018-10-02T15:13:19.253Z,65.97
2018-10-02T15:15:54.807Z,66.48
2018-10-02T15:18:24.126Z,67.32
2018-10-02T15:20:53.269Z,67.73
2018-10-02T15:23:22.413Z,68.34
2018-10-02T15:25:51.579Z,69.52
2018-10-02T15:28:20.944Z,70.45
2018-10-02T15:30:50.267Z,70.33
2018-10-02T15:33:19.109Z,71.41
2018-10-02T15:35:48.208Z,71.06
2018-10-02T15:38:17.384Z,71.66
2018-10-02T15:40:46.296Z,71.97
2018-10-02T15:43:15.061Z,72.77
2018-10-02T15:45:43.850Z,74.05
2018-10-02T15:48:12.760Z,74.69
2018-10-02T15:50:41.835Z,75.46
2018-10-02T15:53:10.889Z,75.74
2018-10-02T15:55:39.681Z,76.18
2018-10-02T15:58:08.479Z,75.27
2018-10-02T16:00:37.293Z,76.36
2018-10-02T16:03:06.339Z,76.65
2018-10-02T16:05:35.653Z,76.82
2018-10-02T16:08:04.752Z,75.81
2018-10-02T16:10:33.977Z,75.15
2018-10-02T16:13:02.946Z,76.03
2018-10-02T16:15:32.254Z,75.45
2018-10-02T16:18:01.619Z,75.77
2018-10-02T16:20:30.592Z,75.91
2018-10-02T16:22:59.525Z,75.86
2018-10-02T16:25:28.645Z,75.49
2018-10-02T16:27:57.417Z,75.99
2018-10-02T16:30:26.297Z,76.06
2018-10-02T16:32:55.296Z,75.82
2018-10-02T16:35:24.053Z,76.51
2018-10-02T16:37:53.148Z,75.82
2018-10-02T16:40:22.050Z,76.04
2018-10-02T16:42:51.092Z,74.62
2018-10-02T16:45:19.950Z,74.69
2018-10-02T16:47:48.690Z,74.47
2018-10-02T16:50:17.457Z,73.68
2018-10-02T16:52:46.261Z,73.42
2018-10-02T16:55:15.037Z,73.03
2018-10-02T16:57:43.949Z,72.51
2018-10-02T17:00:13.073Z,72.64
2018-10-02T17:02:42.067Z,72.51
2018-10-02T17:05:10.882Z,71.43
2018-10-02T17:07:39.801Z,71.49
2018-10-02T17:10:08.932Z,72.45
2018-10-02T17:12:38.041Z,71.84
2018-10-02T17:15:07.170Z,72.70
2018-10-02T17:17:36.325Z,73.27
2018-10-02T17:20:05.601Z,73.25
2018-10-02T17:22:35.029Z,73.83
2018-10-02T17:25:04.065Z,73.39
2018-10-02T17:27:32.864Z,74.33
2018-10-02T17:30:01.644Z,75.46
2018-10-02T17:32:30.618Z,75.30
2018-10-02T17:34:59.642Z,74.38
2018-10-02T17:37:28.970Z,74.78
2018-10-02T17:39:58.045Z,74.68
2018-10-02T17:42:27.202Z,75.15
2018-10-02T17:44:56.130Z,75.27
2018-10-02T17:47:24.911Z,75.56
2018-10-02T17:49:53.786Z,75.84
2018-10-02T17:52:22.989Z,76.23
2018-10-02T17:54:51.965Z,77.82
2018-10-02T17:57:21.207Z,78.77
2018-10-02T17:59:50.528Z,79.25
2018-10-02T18:02:19.786Z,80.62
2018-10-02T18:04:48.929Z,81.28
2018-10-02T18:07:18.273Z,81.79
2018-10-02T18:09:47.420Z,82.95
2018-10-02T18:12:16.703Z,83.12
2018-10-02T18:14:46.052Z,84.10
2018-10-02T18:17:15.346Z,84.20
2018-10-02T18:19:44.605Z,83.92
2018-10-02T18:22:13.812Z,84.51
2018-10-02T18:24:43.064Z,85.08
2018-10-02T18:27:12.379Z,85.34
2018-10-02T18:29:41.517Z,84.33
2018-10-02T18:32:10.804Z,84.31
2018-10-02T18:34:40.134Z,84.22
2018-10-02T18:37:09.432Z,83.65
2018-10-02T18:39:38.509Z,82.42
2018-10-02T18:42:07.932Z,82.07
2018-10-02T18:44:37.842Z,80.86
2018-10-02T18:47:06.814Z,80.87
2018-10-02T18:49:35.581Z,79.98
2018-10-02T18:52:04.465Z,79.08
2018-10-02T18:54:33.650Z,79.16
2018-10-02T18:57:03.040Z,78.66
2018-10-02T18:59:32.457Z,78.44
2018-10-02T19:02:01.759Z,77.31
2018-10-02T19:04:31.056Z,78.00
2018-10-02T19:07:00.188Z,77.33
2018-10-02T19:09:29.289Z,77.63
2018-10-02T19:12:03.521Z,76.85
2018-10-02T19:14:32.907Z,76.69
2018-10-02T19:17:02.381Z,77.59
2018-10-02T19:19:36.694Z,76.46
2018-10-02T19:22:06.038Z,76.25
2018-10-02T19:24:35.233Z,75.07
2018-10-02T19:27:04.632Z,75.41
2018-10-02T19:29:33.969Z,75.64
2018-10-02T19:32:09.219Z,74.62
2018-10-02T19:34:38.930Z,74.59
2018-10-02T19:37:13.317Z,74.60
2018-10-02T19:39:42.629Z,75.54
2018-10-02T19:42:11.964Z,74.37
2018-10-02T19:44:40.836Z,74.89
2018-10-02T19:47:10.535Z,74.75
2018-10-02T19:49:39.929Z,75.42
2018-10-02T19:52:16.389Z,74.87
2018-10-02T19:54:46.229Z,75.20
2018-10-02T19:57:16.683Z,75.24
2018-10-02T19:59:45.976Z,75.35
2018-10-02T20:02:15.103Z,75.04
2018-10-02T20:04:44.246Z,75.23
2018-10-02T20:07:13.718Z,75.64
2018-10-02T20:09:42.921Z,75.98
2018-10-02T20:12:12.104Z,75.76
2018-10-02T20:14:41.300Z,75.48
2018-10-02T20:17:10.600Z,75.77
2018-10-02T20:19:39.696Z,76.30
2018-10-02T20:22:11.944Z,75.44
2018-10-02T20:24:41.217Z,76.29
2018-10-02T20:27:10.401Z,76.37
2018-10-02T20:29:39.633Z,76.50
2018-10-02T20:32:08.805Z,76.59
2018-10-02T20:34:38.079Z,76.96
2018-10-02T20:37:07.519Z,77.05
2018-10-02T20:39:36.765Z,76.99
2018-10-02T20:42:06.019Z,77.47
2018-10-02T20:44:35.368Z,76.91
2018-10-02T20:47:04.568Z,77.87
2018-10-02T20:49:33.424Z,77.68
2018-10-02T20:52:02.742Z,78.06
2018-10-02T20:54:31.872Z,78.49
2018-10-02T20:57:00.636Z,77.72
2018-10-02T20:59:29.416Z,78.36
2018-10-02T21:01:58.500Z,77.85
2018-10-02T21:04:27.261Z,78.14
2018-10-02T21:06:56.021Z,78.68
2018-10-02T21:09:24.975Z,78.06
2018-10-02T21:11:54.038Z,78.04
2018-10-02T21:14:23.145Z,77.46
2018-10-02T21:16:51.981Z,77.94
2018-10-02T21:19:21.658Z,78.02
2018-10-02T21:21:50.983Z,77.27
2018-10-02T21:24:20.125Z,77.31
2018-10-02T21:26:49.350Z,77.60
2018-10-02T21:29:18.687Z,77.83
2018-10-02T21:31:48.009Z,77.90
2018-10-02T21:34:17.237Z,78.89
2018-10-02T21:36:46.753Z,78.95
2018-10-02T21:39:16.017Z,78.90
2018-10-02T21:41:45.117Z,78.36
2018-10-02T21:44:13.891Z,78.38
2018-10-02T21:46:42.668Z,79.03
2018-10-02T21:49:11.445Z,78.03
2018-10-02T21:51:40.296Z,78.62
2018-10-02T21:54:09.272Z,79.01
2018-10-02T21:56:38.373Z,79.10
2018-10-02T21:59:07.446Z,79.00
2018-10-02T22:01:36.216Z,78.72
2018-10-02T22:04:05.232Z,78.95
2018-10-02T22:06:34.020Z,79.10
2018-10-02T22:09:02.869Z,78.26
2018-10-02T22:11:31.996Z,78.12
2018-10-02T22:14:01.092Z,78.41
2018-10-02T22:16:30.151Z,78.77
2018-10-02T22:18:59.153Z,78.90
2018-10-02T22:21:28.189Z,78.11
2018-10-02T22:23:57.083Z,78.66
2018-10-02T22:26:25.932Z,79.40
2018-10-02T22:28:55.093Z,78.68
2018-10-02T22:31:24.249Z,79.37
2018-10-02T22:33:53.048Z,78.60
2018-10-02T22:36:21.931Z,80.09
2018-10-02T22:38:51.000Z,79.48
2018-10-02T22:41:19.982Z,78.87
2018-10-02T22:43:48.733Z,78.79
2018-10-02T22:46:17.525Z,78.94
2018-10-02T22:48:47.621Z,78.22
2018-10-02T22:51:16.392Z,78.65
2018-10-02T22:53:45.185Z,78.64
2018-10-02T22:56:14.173Z,78.40
2018-10-02T22:58:43.150Z,78.41
2018-10-02T23:01:11.932Z,78.08
2018-10-02T23:03:40.701Z,78.37
2018-10-02T23:06:09.741Z,78.06
2018-10-02T23:08:38.534Z,78.18
2018-10-02T23:11:07.419Z,79.75
2018-10-02T23:13:36.370Z,81.02
2018-10-02T23:16:05.685Z,82.04
2018-10-02T23:18:34.777Z,82.88
2018-10-02T23:21:04.105Z,84.67
2018-10-02T23:23:33.524Z,86.31
2018-10-02T23:26:02.922Z,86.48
2018-10-02T23:28:32.232Z,87.96
2018-10-02T23:31:01.373Z,87.86
2018-10-02T23:33:30.513Z,88.52
2018-10-02T23:36:00.061Z,88.14
2018-10-02T23:38:29.213Z,87.66
2018-10-02T23:40:58.902Z,88.59
2018-10-02T23:43:28.229Z,88.61
2018-10-02T23:45:57.386Z,88.86
2018-10-02T23:48:26.759Z,87.79
2018-10-02T23:50:57.176Z,88.38
2018-10-02T23:53:26.289Z,87.81
2018-10-02T23:55:56.278Z,88.40
2018-10-02T23:58:25.713Z,88.10
